Time;durP1;ratioP1;P1;durP2;ratioP2;P2;SDS_P1;SDS_P2;PMS_P1;PMS_P2;Temp;Humidity;BMP_temperature;BMP_pressure;BME280_temperature;BME280_humidity;BME280_pressure;Samples;Min_cycle;Max_cycle;Signal;HPM_P1;HPM_P2
2020/12/21 00:03:19;;;;;;;3.53;1.40;;;15.50;64.70;;;;;;5596537;23;20064;-60
2020/12/21 00:05:45;;;;;;;3.45;1.65;;;15.40;65.00;;;;;;4936476;29;20034;-61
2020/12/21 00:08:10;;;;;;;2.88;1.15;;;15.40;65.10;;;;;;4936449;29;20024;-60
2020/12/21 00:10:36;;;;;;;3.80;1.60;;;15.10;64.90;;;;;;4936820;29;20024;-60
2020/12/21 00:13:10;;;;;;;3.28;1.17;;;15.20;64.90;;;;;;4936324;29;20059;-61
2020/12/21 00:15:36;;;;;;;3.63;1.23;;;15.40;65.00;;;;;;4936791;29;20031;-61
2020/12/21 00:18:01;;;;;;;2.83;1.20;;;15.40;65.00;;;;;;4936385;29;20032;-61
2020/12/21 00:20:27;;;;;;;3.17;1.27;;;15.30;65.00;;;;;;4919442;29;20449;-60
2020/12/21 00:22:53;;;;;;;1.52;0.98;;;15.40;65.00;;;;;;4935720;29;20040;-60
2020/12/21 00:25:19;;;;;;;2.25;1.13;;;15.50;65.10;;;;;;4919079;29;20083;-60
2020/12/21 00:27:45;;;;;;;2.70;1.42;;;15.30;65.00;;;;;;4919272;29;20031;-60
2020/12/21 00:30:12;;;;;;;2.72;0.88;;;15.30;65.00;;;;;;4936066;29;20020;-61
2020/12/21 00:32:38;;;;;;;2.47;1.17;;;15.30;65.00;;;;;;4935711;29;20088;-61
2020/12/21 00:35:04;;;;;;;3.30;1.38;;;15.30;65.00;;;;;;4935821;29;20114;-61
2020/12/21 00:37:29;;;;;;;3.90;1.17;;;15.30;65.00;;;;;;4919211;29;20414;-60
2020/12/21 00:39:55;;;;;;;2.28;1.30;;;15.20;65.00;;;;;;4935784;29;20351;-60
2020/12/21 00:42:21;;;;;;;3.22;1.38;;;15.40;65.10;;;;;;4935821;29;20113;-60
2020/12/21 00:44:47;;;;;;;1.92;0.90;;;15.30;65.00;;;;;;4935858;29;20110;-60
2020/12/21 00:47:13;;;;;;;4.45;1.30;;;15.20;65.00;;;;;;4935546;29;20088;-60
2020/12/21 00:49:39;;;;;;;3.03;1.25;;;15.30;65.00;;;;;;4903129;29;20027;-61
2020/12/21 00:52:04;;;;;;;3.85;1.42;;;15.20;65.00;;;;;;4938547;29;20035;-60
2020/12/21 00:54:31;;;;;;;3.05;1.35;;;15.20;65.00;;;;;;4939743;29;20132;-60
2020/12/21 00:56:57;;;;;;;3.30;1.05;;;15.30;65.00;;;;;;4939200;29;20116;-60
2020/12/21 00:59:23;;;;;;;2.38;0.85;;;15.30;65.00;;;;;;4922223;29;20024;-60
2020/12/21 01:01:49;;;;;;;2.92;1.30;;;15.20;65.00;;;;;;4938816;29;20028;-59
2020/12/21 01:04:22;;;;;;;3.40;1.20;;;15.20;64.90;;;;;;4940659;28;20043;-60
2020/12/21 01:06:54;;;;;;;2.00;1.00;;;15.20;65.00;;;;;;4939040;29;20042;-60
2020/12/21 01:09:20;;;;;;;2.05;1.13;;;15.20;65.00;;;;;;4921696;29;20023;-60
2020/12/21 01:11:46;;;;;;;3.33;1.17;;;15.20;65.00;;;;;;4939021;29;20031;-60
2020/12/21 01:14:12;;;;;;;2.63;1.23;;;15.20;65.10;;;;;;4922242;29;20489;-60
2020/12/21 01:16:38;;;;;;;3.22;1.42;;;15.20;65.10;;;;;;4921884;29;20094;-60
2020/12/21 01:19:06;;;;;;;2.28;1.10;;;15.20;65.10;;;;;;4938987;29;20023;-60
2020/12/21 01:21:31;;;;;;;2.22;1.10;;;15.20;65.10;;;;;;4921843;29;20122;-60
2020/12/21 01:23:59;;;;;;;4.63;1.33;;;15.20;65.10;;;;;;4906169;29;20465;-60
2020/12/21 01:26:26;;;;;;;2.40;0.95;;;15.20;65.20;;;;;;4938691;29;20023;-60
2020/12/21 01:28:53;;;;;;;3.03;1.20;;;15.10;65.10;;;;;;4939172;29;20054;-60
2020/12/21 01:31:20;;;;;;;2.85;1.17;;;15.10;65.00;;;;;;4921165;29;20366;-60
2020/12/21 01:33:48;;;;;;;2.85;1.20;;;15.10;65.10;;;;;;4921600;29;20036;-60
2020/12/21 01:36:18;;;;;;;4.25;1.20;;;15.10;65.10;;;;;;4938850;29;20040;-60
2020/12/21 01:38:44;;;;;;;3.95;1.13;;;15.10;65.10;;;;;;4921363;29;20080;-60
2020/12/21 01:41:10;;;;;;;3.88;1.02;;;15.10;65.10;;;;;;4921236;29;20036;-61
2020/12/21 01:43:37;;;;;;;2.25;1.13;;;15.10;65.10;;;;;;4938360;29;20027;-60
2020/12/21 01:46:14;;;;;;;2.78;1.23;;;15.10;65.10;;;;;;4938617;29;20032;-60
2020/12/21 01:48:43;;;;;;;2.65;1.05;;;15.00;65.10;;;;;;4938875;29;20031;-60
2020/12/21 01:51:21;;;;;;;3.10;1.20;;;15.10;65.10;;;;;;4938440;29;20028;-60
2020/12/21 01:53:48;;;;;;;3.58;1.30;;;15.00;65.10;;;;;;4938908;29;20034;-60
2020/12/21 01:56:16;;;;;;;2.05;1.23;;;15.10;65.10;;;;;;4953025;29;20074;-60
2020/12/21 01:58:43;;;;;;;3.55;1.50;;;15.10;65.10;;;;;;4938268;29;20016;-59
2020/12/21 02:01:12;;;;;;;3.10;1.10;;;15.00;65.10;;;;;;4921160;29;20035;-60
2020/12/21 02:03:48;;;;;;;3.13;1.17;;;15.10;65.20;;;;;;4927855;28;20046;-60
2020/12/21 02:06:14;;;;;;;4.53;1.30;;;15.00;65.10;;;;;;4940004;29;20500;-60
2020/12/21 02:08:41;;;;;;;2.20;1.00;;;15.00;65.10;;;;;;4957394;29;20031;-60
2020/12/21 02:11:07;;;;;;;3.15;1.40;;;15.00;65.10;;;;;;4957193;29;20473;-60
2020/12/21 02:13:33;;;;;;;3.63;1.15;;;15.00;65.10;;;;;;4957093;29;20144;-60
2020/12/21 02:16:01;;;;;;;3.25;1.40;;;15.00;65.10;;;;;;4956699;29;20059;-60
2020/12/21 02:18:27;;;;;;;3.25;1.30;;;15.00;65.10;;;;;;4955731;28;20024;-60
2020/12/21 02:20:54;;;;;;;4.10;1.45;;;15.00;65.10;;;;;;4956582;29;20019;-60
2020/12/21 02:23:20;;;;;;;3.75;1.35;;;15.00;65.20;;;;;;4939667;29;20042;-60
2020/12/21 02:25:45;;;;;;;4.65;1.10;;;15.00;65.20;;;;;;4957136;29;20028;-61
2020/12/21 02:28:11;;;;;;;3.10;1.25;;;15.00;65.20;;;;;;4924153;29;20393;-59
2020/12/21 02:30:38;;;;;;;2.35;1.10;;;15.10;65.30;;;;;;4956955;29;20028;-60
2020/12/21 02:33:07;;;;;;;3.13;1.13;;;15.00;65.20;;;;;;4957180;29;20058;-60
2020/12/21 02:35:34;;;;;;;3.38;1.10;;;14.90;65.20;;;;;;4956937;29;20077;-60
2020/12/21 02:38:07;;;;;;;4.25;1.40;;;15.00;65.20;;;;;;4957358;29;20379;-59
2020/12/21 02:40:37;;;;;;;3.67;1.15;;;15.00;65.20;;;;;;4940026;29;20032;-59
2020/12/21 02:43:04;;;;;;;2.55;1.35;;;14.90;65.20;;;;;;4957021;29;20027;-60
2020/12/21 02:45:31;;;;;;;4.60;1.35;;;14.90;65.20;;;;;;4957187;29;20390;-59
2020/12/21 02:47:57;;;;;;;3.35;1.20;;;14.80;65.10;;;;;;4957563;29;20035;-60
2020/12/21 02:50:24;;;;;;;3.42;1.20;;;14.90;65.10;;;;;;4939558;29;20023;-60
2020/12/21 02:52:50;;;;;;;2.80;1.10;;;14.90;65.10;;;;;;4939245;29;20038;-60
2020/12/21 02:55:16;;;;;;;3.55;1.60;;;14.80;65.10;;;;;;4956724;29;20027;-60
2020/12/21 02:57:42;;;;;;;2.97;1.70;;;14.90;65.10;;;;;;4956804;29;20433;-60
2020/12/21 03:00:10;;;;;;;3.53;1.40;;;14.80;65.10;;;;;;4956516;29;20034;-60
2020/12/21 03:02:36;;;;;;;2.00;1.10;;;14.80;65.10;;;;;;4939649;29;20031;-60
2020/12/21 03:05:03;;;;;;;2.55;1.45;;;14.90;65.10;;;;;;4942002;28;20055;-60
2020/12/21 03:07:29;;;;;;;1.35;0.90;;;14.90;65.10;;;;;;4920802;29;20445;-60
2020/12/21 03:09:55;;;;;;;2.33;1.10;;;14.90;65.10;;;;;;4904992;29;20038;-60
2020/12/21 03:12:21;;;;;;;4.15;1.38;;;14.90;65.10;;;;;;4920437;29;20502;-61
2020/12/21 03:14:47;;;;;;;3.08;1.20;;;14.90;65.10;;;;;;4936370;29;20024;-60
2020/12/21 03:17:13;;;;;;;4.43;1.00;;;14.90;65.10;;;;;;4937698;29;20094;-60
2020/12/21 03:19:39;;;;;;;2.40;1.30;;;14.80;65.10;;;;;;4937206;29;20032;-60
2020/12/21 03:22:05;;;;;;;5.22;0.93;;;14.80;65.10;;;;;;4937391;29;20020;-60
2020/12/21 03:24:31;;;;;;;3.42;1.48;;;14.90;65.10;;;;;;4920688;29;20034;-61
2020/12/21 03:26:57;;;;;;;4.82;1.20;;;14.80;65.10;;;;;;4937671;29;20032;-60
2020/12/21 03:29:23;;;;;;;3.47;1.35;;;14.80;65.10;;;;;;4920354;29;20032;-60
2020/12/21 03:31:49;;;;;;;2.05;0.75;;;14.80;65.10;;;;;;4937470;29;20036;-61
2020/12/21 03:34:16;;;;;;;2.42;1.00;;;14.80;65.10;;;;;;4937136;29;20386;-60
2020/12/21 03:36:42;;;;;;;2.92;0.90;;;14.90;65.10;;;;;;4937565;29;20108;-60
2020/12/21 03:39:08;;;;;;;2.90;1.10;;;14.80;65.10;;;;;;4937784;29;20462;-61
2020/12/21 03:41:36;;;;;;;2.63;1.20;;;15.00;65.20;;;;;;4920250;29;20027;-59
2020/12/21 03:44:03;;;;;;;3.13;1.00;;;14.80;65.20;;;;;;4937281;29;20031;-60
2020/12/21 03:46:29;;;;;;;1.60;0.95;;;14.70;65.00;;;;;;4920024;29;20063;-60
2020/12/21 03:48:55;;;;;;;2.78;1.02;;;14.60;65.00;;;;;;4937463;29;20024;-60
2020/12/21 03:51:21;;;;;;;3.55;1.30;;;14.70;65.00;;;;;;4920287;29;20041;-60
2020/12/21 03:53:48;;;;;;;3.58;1.20;;;14.80;65.10;;;;;;4936901;29;20019;-60
2020/12/21 03:56:14;;;;;;;2.05;1.13;;;14.70;65.00;;;;;;4920063;29;20523;-61
2020/12/21 03:58:39;;;;;;;1.92;1.35;;;14.70;65.10;;;;;;4919642;29;20462;-60
2020/12/21 04:01:05;;;;;;;2.92;1.10;;;14.60;65.00;;;;;;4936133;29;20108;-59
2020/12/21 04:03:32;;;;;;;2.20;1.40;;;14.70;65.10;;;;;;4920550;28;20083;-60
2020/12/21 04:05:58;;;;;;;2.72;1.30;;;14.70;65.10;;;;;;4918946;29;20039;-59
2020/12/21 04:08:27;;;;;;;2.65;1.13;;;14.70;65.10;;;;;;4935553;29;20028;-60
2020/12/21 04:10:57;;;;;;;3.38;1.15;;;14.70;65.20;;;;;;4903525;29;20431;-60
2020/12/21 04:13:24;;;;;;;2.28;1.08;;;14.70;65.10;;;;;;4919327;29;20031;-60
2020/12/21 04:15:51;;;;;;;3.58;1.00;;;14.70;65.10;;;;;;4935741;29;20079;-60
2020/12/21 04:18:17;;;;;;;2.97;1.40;;;14.70;65.00;;;;;;4935796;29;20027;-60
2020/12/21 04:20:43;;;;;;;2.58;1.10;;;14.70;65.10;;;;;;4936132;29;20035;-59
2020/12/21 04:23:09;;;;;;;4.28;1.45;;;14.70;65.10;;;;;;4936063;29;20031;-60
2020/12/21 04:25:36;;;;;;;2.53;1.20;;;14.70;65.10;;;;;;4935343;29;20024;-60
2020/12/21 04:28:02;;;;;;;2.00;1.08;;;14.70;65.10;;;;;;4935677;29;20024;-60
2020/12/21 04:30:28;;;;;;;2.85;1.13;;;14.80;65.20;;;;;;4936099;29;20023;-60
2020/12/21 04:32:54;;;;;;;3.10;1.20;;;14.60;65.00;;;;;;4935755;29;20020;-60
2020/12/21 04:35:19;;;;;;;3.20;1.10;;;14.60;65.00;;;;;;4935740;29;20091;-59
2020/12/21 04:37:46;;;;;;;3.22;1.35;;;14.40;65.00;;;;;;4918540;29;20035;-60
2020/12/21 04:40:14;;;;;;;3.63;1.08;;;14.60;65.10;;;;;;4919162;29;20114;-61
2020/12/21 04:42:49;;;;;;;1.70;1.15;;;14.60;65.10;;;;;;4919540;29;20039;-60
2020/12/21 04:45:20;;;;;;;1.85;1.00;;;14.60;65.10;;;;;;4936481;29;20043;-60
2020/12/21 04:47:47;;;;;;;1.52;1.10;;;14.60;65.10;;;;;;4936204;29;20541;-60
2020/12/21 04:50:17;;;;;;;3.92;1.10;;;14.60;65.10;;;;;;4919673;29;20040;-60
2020/12/21 04:52:47;;;;;;;;;;;14.60;65.10;;;;;;4936666;29;20072;-60
2020/12/21 04:55:16;;;;;;;3.20;1.00;;;14.60;65.20;;;;;;4936196;29;19967;-60
2020/12/21 04:57:53;;;;;;;3.33;1.10;;;14.60;65.20;;;;;;4935975;29;20028;-61
2020/12/21 05:00:19;;;;;;;3.42;1.42;;;14.50;65.10;;;;;;4935588;29;20023;-60
2020/12/21 05:02:45;;;;;;;3.70;1.05;;;14.60;65.20;;;;;;4935886;29;20385;-60
2020/12/21 05:05:10;;;;;;;2.28;1.08;;;14.60;65.20;;;;;;4935254;28;20051;-60
2020/12/21 05:07:36;;;;;;;2.42;1.23;;;14.60;65.20;;;;;;4954543;29;20079;-60
2020/12/21 05:10:07;;;;;;;4.88;1.55;;;14.60;65.20;;;;;;4954863;29;20086;-60
2020/12/21 05:12:33;;;;;;;2.35;1.05;;;14.60;65.20;;;;;;4955044;29;20032;-60
2020/12/21 05:14:58;;;;;;;4.10;1.30;;;14.60;65.10;;;;;;4937618;29;20079;-60
2020/12/21 05:17:24;;;;;;;2.75;1.58;;;14.50;65.10;;;;;;4937966;29;20035;-60
2020/12/21 05:20:03;;;;;;;2.95;1.23;;;14.50;65.10;;;;;;4955125;29;20024;-60
2020/12/21 05:22:32;;;;;;;5.10;1.02;;;14.60;65.20;;;;;;4938113;29;20046;-60
2020/12/21 05:25:08;;;;;;;3.10;1.17;;;14.50;65.10;;;;;;4937783;29;20031;-61
2020/12/21 05:27:35;;;;;;;2.78;1.20;;;14.50;65.20;;;;;;4954683;29;20027;-60
2020/12/21 05:30:02;;;;;;;4.13;1.38;;;14.50;65.20;;;;;;4955237;29;20038;-60
2020/12/21 05:32:28;;;;;;;1.60;1.02;;;14.50;65.20;;;;;;4955160;29;20038;-60
2020/12/21 05:35:07;;;;;;;1.90;1.23;;;14.50;65.20;;;;;;4937484;29;20027;-60
2020/12/21 05:37:37;;;;;;;2.90;1.33;;;14.40;65.20;;;;;;4955868;28;20058;-60
2020/12/21 05:40:05;;;;;;;2.50;1.30;;;14.50;65.20;;;;;;4941736;29;20107;-60
2020/12/21 05:42:30;;;;;;;2.60;1.40;;;14.50;65.20;;;;;;4941368;29;20147;-61
2020/12/21 05:45:01;;;;;;;2.97;1.17;;;14.50;65.20;;;;;;4958234;29;20035;-60
2020/12/21 05:47:28;;;;;;;3.47;1.17;;;14.40;65.20;;;;;;4958482;29;20051;-60
2020/12/21 05:49:58;;;;;;;2.10;1.15;;;14.50;65.20;;;;;;4958232;29;20485;-60
2020/12/21 05:52:38;;;;;;;2.90;1.02;;;14.50;65.30;;;;;;4958502;29;20043;-60
2020/12/21 05:55:10;;;;;;;3.05;1.30;;;14.50;65.20;;;;;;4958261;29;20038;-60
2020/12/21 05:57:38;;;;;;;3.78;1.50;;;14.50;65.30;;;;;;4940817;29;20039;-60
2020/12/21 06:00:06;;;;;;;2.45;1.67;;;14.50;65.30;;;;;;4958356;29;20023;-60
2020/12/21 06:02:32;;;;;;;3.85;1.50;;;14.50;65.30;;;;;;4958083;29;20118;-60
2020/12/21 06:05:02;;;;;;;2.55;1.25;;;14.50;65.30;;;;;;4942061;28;20469;-60
2020/12/21 06:07:30;;;;;;;1.90;0.80;;;14.50;65.30;;;;;;4958569;29;20520;-60
2020/12/21 06:10:01;;;;;;;2.38;1.27;;;14.50;65.20;;;;;;4957981;29;20019;-60
2020/12/21 06:12:33;;;;;;;4.22;1.40;;;14.50;65.20;;;;;;4957683;29;20027;-60
2020/12/21 06:15:09;;;;;;;4.15;1.10;;;14.50;65.40;;;;;;4957163;29;20058;-60
2020/12/21 06:17:35;;;;;;;1.40;1.02;;;14.60;65.80;;;;;;4957441;29;20027;-61
2020/12/21 06:20:04;;;;;;;2.92;1.30;;;14.60;65.60;;;;;;4957484;29;20027;-60
2020/12/21 06:22:30;;;;;;;2.42;1.40;;;14.70;65.70;;;;;;4957111;29;20199;-60
2020/12/21 06:24:56;;;;;;;2.55;1.10;;;14.80;65.60;;;;;;4972356;28;20292;-60
2020/12/21 06:27:22;;;;;;;2.45;1.20;;;14.80;65.70;;;;;;4956971;29;20031;-60
2020/12/21 06:29:58;;;;;;;2.83;1.20;;;14.90;65.60;;;;;;4957104;29;20027;-60
2020/12/21 06:32:30;;;;;;;2.58;0.88;;;14.90;65.50;;;;;;4939968;29;20031;-61
2020/12/21 06:34:56;;;;;;;2.75;1.13;;;14.90;65.50;;;;;;4957220;29;20031;-60
2020/12/21 06:37:23;;;;;;;2.17;1.27;;;15.10;65.70;;;;;;4939222;29;20122;-61
2020/12/21 06:40:01;;;;;;;1.40;1.10;;;15.10;65.60;;;;;;4955906;29;20051;-60
2020/12/21 06:42:28;;;;;;;3.90;1.02;;;15.70;65.90;;;;;;4956710;29;20430;-60
2020/12/21 06:44:55;;;;;;;1.25;0.60;;;15.20;65.60;;;;;;4939139;29;20594;-60
2020/12/21 06:47:26;;;;;;;3.28;1.38;;;15.30;65.50;;;;;;4939134;29;20027;-60
2020/12/21 06:49:53;;;;;;;1.17;0.77;;;15.30;65.50;;;;;;4956478;28;20119;-59
2020/12/21 06:52:19;;;;;;;2.58;1.30;;;15.30;65.40;;;;;;4939471;29;20023;-59
2020/12/21 06:54:48;;;;;;;4.43;1.25;;;15.30;65.40;;;;;;4957146;29;20023;-60
2020/12/21 06:57:14;;;;;;;2.90;0.80;;;15.40;65.40;;;;;;4956746;29;20456;-60
2020/12/21 06:59:39;;;;;;;3.17;1.38;;;15.40;65.50;;;;;;4939194;29;20046;-60
2020/12/21 07:02:05;;;;;;;2.85;0.93;;;15.40;65.30;;;;;;4956010;29;20410;-60
2020/12/21 07:04:33;;;;;;;1.98;1.10;;;15.40;65.30;;;;;;4948863;28;20058;-59
2020/12/21 07:07:04;;;;;;;4.18;1.00;;;15.40;65.30;;;;;;4936940;29;20024;-60
2020/12/21 07:09:32;;;;;;;3.03;1.10;;;15.40;65.20;;;;;;4937416;29;20386;-61
2020/12/21 07:12:03;;;;;;;3.80;1.17;;;15.50;65.30;;;;;;4937334;29;20028;-60
2020/12/21 07:14:30;;;;;;;2.13;0.85;;;15.30;65.10;;;;;;4936863;29;20055;-60
2020/12/21 07:17:08;;;;;;;2.58;1.15;;;15.40;65.00;;;;;;4919207;29;20039;-60
2020/12/21 07:19:38;;;;;;;3.42;1.20;;;15.40;65.00;;;;;;4936969;29;20052;-60
2020/12/21 07:22:06;;;;;;;3.10;1.23;;;15.60;65.10;;;;;;4919577;29;20038;-61
2020/12/21 07:24:32;;;;;;;2.63;1.13;;;15.40;64.90;;;;;;4936767;29;20106;-60
2020/12/21 07:26:58;;;;;;;2.63;1.15;;;15.40;65.00;;;;;;4936813;29;20028;-59
2020/12/21 07:29:32;;;;;;;2.00;0.93;;;15.30;64.80;;;;;;4919777;29;20028;-59
2020/12/21 07:31:58;;;;;;;4.63;1.08;;;15.60;64.90;;;;;;4936507;29;20030;-59
2020/12/21 07:34:24;;;;;;;1.85;1.13;;;15.40;64.80;;;;;;4918921;29;20393;-59
2020/12/21 07:36:49;;;;;;;3.63;1.13;;;15.50;64.70;;;;;;4935787;29;20119;-60
2020/12/21 07:39:17;;;;;;;2.05;0.80;;;15.40;64.60;;;;;;4936207;29;20031;-59
2020/12/21 07:41:54;;;;;;;2.22;0.98;;;15.40;64.50;;;;;;4919019;29;20178;-60
2020/12/21 07:44:27;;;;;;;4.10;1.52;;;15.40;64.40;;;;;;4935916;29;20020;-60
2020/12/21 07:47:03;;;;;;;1.42;0.85;;;15.40;64.40;;;;;;4935805;29;20031;-60
2020/12/21 07:49:33;;;;;;;3.05;1.10;;;15.40;64.30;;;;;;4919519;29;20415;-60
2020/12/21 07:52:02;;;;;;;1.98;1.10;;;15.40;64.20;;;;;;4936113;29;20062;-60
2020/12/21 07:54:31;;;;;;;2.33;1.15;;;15.40;64.20;;;;;;4936154;29;20024;-60
2020/12/21 07:57:01;;;;;;;10.45;1.73;;;15.60;64.20;;;;;;4936018;29;20044;-59
2020/12/21 07:59:27;;;;;;;4.47;1.35;;;15.50;63.90;;;;;;4936335;29;20027;-60
2020/12/21 08:02:04;;;;;;;3.58;1.27;;;15.50;64.10;;;;;;4935870;29;20082;-60
2020/12/21 08:04:29;;;;;;;4.30;1.25;;;15.60;64.00;;;;;;4927297;28;20098;-60
2020/12/21 08:07:12;;;;;;;3.97;1.45;;;15.60;64.20;;;;;;4955326;29;20020;-60
2020/12/21 08:09:39;;;;;;;4.13;1.50;;;15.70;64.20;;;;;;4955166;29;20071;-61
2020/12/21 08:12:09;;;;;;;5.05;1.17;;;15.60;64.00;;;;;;4938226;29;20038;-63
2020/12/21 08:14:35;;;;;;;4.38;1.52;;;15.60;64.00;;;;;;4955254;29;20027;-60
2020/12/21 08:17:17;;;;;;;4.13;1.60;;;15.60;63.80;;;;;;4955304;29;20429;-61
2020/12/21 08:19:49;;;;;;;3.55;1.20;;;15.70;63.90;;;;;;4955434;29;20499;-61
2020/12/21 08:22:24;;;;;;;3.25;1.52;;;15.70;64.00;;;;;;4954948;29;20031;-60
2020/12/21 08:25:09;;;;;;;4.35;1.15;;;15.70;64.10;;;;;;4954423;29;20050;-59
2020/12/21 08:27:35;;;;;;;9.10;1.65;;;15.70;64.20;;;;;;4954733;29;20027;-59
2020/12/21 08:30:12;;;;;;;3.05;1.55;;;15.80;64.30;;;;;;4955364;29;20030;-60
2020/12/21 08:32:38;;;;;;;4.65;1.40;;;15.70;64.00;;;;;;4954786;29;20102;-60
2020/12/21 08:35:05;;;;;;;8.57;1.33;;;15.80;64.10;;;;;;4937538;29;20050;-60
2020/12/21 08:37:30;;;;;;;2.85;1.10;;;15.80;64.00;;;;;;4955505;29;20028;-60
2020/12/21 08:39:56;;;;;;;2.10;1.23;;;15.80;63.80;;;;;;4955230;29;20077;-60
2020/12/21 08:42:22;;;;;;;2.13;1.08;;;15.90;63.50;;;;;;4954934;29;20530;-59
2020/12/21 08:44:51;;;;;;;6.28;1.40;;;15.90;63.30;;;;;;4954516;29;20027;-59
2020/12/21 08:47:17;;;;;;;3.13;1.15;;;15.90;63.10;;;;;;4954854;29;20012;-60
2020/12/21 08:49:42;;;;;;;2.22;1.02;;;15.90;62.80;;;;;;4955031;29;20094;-60
2020/12/21 08:52:08;;;;;;;6.97;1.50;;;16.10;62.60;;;;;;4955054;29;20026;-60
2020/12/21 08:54:34;;;;;;;5.15;1.63;;;15.90;62.80;;;;;;4954632;29;20046;-60
2020/12/21 08:56:59;;;;;;;4.22;1.30;;;15.80;62.80;;;;;;4954633;29;20187;-60
2020/12/21 08:59:25;;;;;;;5.03;1.80;;;15.80;62.90;;;;;;4954580;29;20019;-60
2020/12/21 09:01:51;;;;;;;6.10;1.70;;;15.80;63.00;;;;;;4954181;29;20058;-60
2020/12/21 09:04:23;;;;;;;3.67;1.42;;;15.80;63.20;;;;;;4951782;28;20136;-60
2020/12/21 09:06:49;;;;;;;3.15;1.35;;;15.70;63.00;;;;;;4935470;29;20059;-60
2020/12/21 09:09:15;;;;;;;4.57;1.40;;;15.80;63.00;;;;;;4949796;29;20050;-60
2020/12/21 09:11:40;;;;;;;4.80;1.83;;;15.80;63.10;;;;;;4919023;29;20023;-60
2020/12/21 09:14:06;;;;;;;3.15;1.48;;;15.80;63.10;;;;;;4938693;29;20522;-60
2020/12/21 09:16:31;;;;;;;7.32;2.03;;;15.70;63.40;;;;;;4938804;29;20542;-60
2020/12/21 09:18:59;;;;;;;2.65;1.33;;;15.70;63.40;;;;;;4938814;29;20028;-60
2020/12/21 09:21:29;;;;;;;3.00;1.25;;;15.70;63.40;;;;;;4938725;29;20027;-60
2020/12/21 09:23:59;;;;;;;;;;;15.70;64.10;;;;;;4939311;29;20027;-59
2020/12/21 09:26:25;;;;;;;3.45;1.52;;;15.70;63.60;;;;;;4938934;29;19955;-60
2020/12/21 09:28:52;;;;;;;3.42;1.40;;;15.70;63.80;;;;;;4938461;29;20516;-59
2020/12/21 09:31:19;;;;;;;4.45;1.25;;;15.60;63.60;;;;;;4921265;29;20037;-59
2020/12/21 09:33:46;;;;;;;6.70;1.40;;;15.60;63.90;;;;;;4938369;29;20047;-60
2020/12/21 09:36:13;;;;;;;2.75;1.35;;;15.70;63.80;;;;;;4938671;29;20039;-60
2020/12/21 09:38:39;;;;;;;8.77;1.67;;;15.60;63.80;;;;;;4938772;29;20040;-60
2020/12/21 09:41:05;;;;;;;4.63;1.50;;;15.80;63.90;;;;;;4921851;29;20055;-61
2020/12/21 09:43:31;;;;;;;4.20;1.80;;;15.60;63.70;;;;;;4938342;29;20023;-60
2020/12/21 09:45:57;;;;;;;2.10;0.85;;;15.80;63.80;;;;;;4921431;29;20028;-61
2020/12/21 09:48:23;;;;;;;5.32;2.10;;;15.70;63.40;;;;;;4937928;29;20481;-60
2020/12/21 09:50:49;;;;;;;3.58;1.42;;;15.70;63.70;;;;;;4938193;29;20031;-60
2020/12/21 09:53:15;;;;;;;7.30;1.55;;;15.70;63.70;;;;;;4937920;29;20052;-60
2020/12/21 09:55:42;;;;;;;2.60;1.30;;;15.80;63.80;;;;;;4937977;29;20028;-61
2020/12/21 09:58:07;;;;;;;5.32;1.55;;;15.70;63.90;;;;;;4938132;29;20027;-62
2020/12/21 10:00:33;;;;;;;5.75;1.92;;;15.90;63.90;;;;;;4938077;29;20039;-61
2020/12/21 10:02:58;;;;;;;3.75;1.48;;;15.90;64.20;;;;;;4920539;29;20020;-60
2020/12/21 10:05:24;;;;;;;3.95;1.60;;;16.00;64.00;;;;;;4938759;28;20052;-60
2020/12/21 10:07:50;;;;;;;2.85;1.58;;;16.10;63.80;;;;;;4937870;29;20036;-61
2020/12/21 10:10:15;;;;;;;6.78;1.90;;;16.10;63.50;;;;;;4937529;29;20031;-61
2020/12/21 10:12:41;;;;;;;8.48;1.63;;;16.20;63.60;;;;;;4937783;29;20485;-61
2020/12/21 10:15:07;;;;;;;3.17;1.10;;;16.30;63.00;;;;;;4937253;29;20020;-61
2020/12/21 10:17:32;;;;;;;5.88;1.67;;;16.30;62.60;;;;;;4937711;29;20035;-61
2020/12/21 10:19:58;;;;;;;3.20;1.30;;;16.30;62.70;;;;;;4937683;29;20489;-61
2020/12/21 10:22:24;;;;;;;5.40;1.67;;;16.40;62.60;;;;;;4920266;29;20043;-61
2020/12/21 10:24:49;;;;;;;3.60;1.38;;;16.60;62.10;;;;;;4936569;29;20497;-60
2020/12/21 10:27:15;;;;;;;2.17;1.00;;;16.50;61.80;;;;;;4937219;29;20024;-59
2020/12/21 10:29:41;;;;;;;2.85;1.45;;;16.50;61.80;;;;;;4937271;29;20094;-62
2020/12/21 10:32:06;;;;;;;4.82;1.60;;;16.70;62.20;;;;;;4937130;29;20095;-62
2020/12/21 10:34:38;;;;;;;12.10;1.77;;;16.70;62.40;;;;;;4920390;29;20032;-61
2020/12/21 10:37:03;;;;;;;5.15;1.20;;;16.70;62.30;;;;;;4937180;29;20130;-62
2020/12/21 10:39:36;;;;;;;6.45;1.40;;;16.70;61.80;;;;;;4937376;29;20587;-61
2020/12/21 10:42:06;;;;;;;5.68;1.35;;;16.80;61.60;;;;;;4936963;29;20036;-61
2020/12/21 10:44:32;;;;;;;6.35;1.20;;;16.80;61.30;;;;;;4937251;29;20051;-62
2020/12/21 10:46:58;;;;;;;4.60;1.55;;;16.90;61.00;;;;;;4936738;29;20543;-62
2020/12/21 10:49:24;;;;;;;4.28;1.40;;;16.90;61.10;;;;;;4937204;29;20148;-61
2020/12/21 10:51:50;;;;;;;3.83;1.48;;;16.90;61.10;;;;;;4936930;29;20115;-61
2020/12/21 10:54:15;;;;;;;4.45;1.42;;;16.90;60.80;;;;;;4936697;29;20024;-61
2020/12/21 10:56:41;;;;;;;3.55;1.13;;;16.90;60.70;;;;;;4936544;29;20039;-61
2020/12/21 10:59:07;;;;;;;6.57;1.23;;;17.00;61.00;;;;;;4936956;29;20463;-61
2020/12/21 11:01:32;;;;;;;6.60;1.15;;;16.90;61.20;;;;;;4936623;29;20042;-62
2020/12/21 11:03:58;;;;;;;3.72;1.55;;;17.00;61.10;;;;;;4921535;28;20039;-63
2020/12/21 11:06:25;;;;;;;2.97;1.15;;;16.90;61.40;;;;;;4936167;29;20047;-63
2020/12/21 11:08:53;;;;;;;6.95;1.48;;;16.90;61.40;;;;;;4936942;29;20107;-63
2020/12/21 11:11:27;;;;;;;6.63;1.38;;;16.90;61.40;;;;;;4936431;29;20020;-62
2020/12/21 11:13:53;;;;;;;4.80;1.20;;;16.90;61.40;;;;;;4936734;29;20023;-63
2020/12/21 11:16:19;;;;;;;5.28;1.23;;;16.90;61.40;;;;;;4935981;29;20032;-60
2020/12/21 11:18:45;;;;;;;4.82;1.15;;;16.80;61.20;;;;;;4936914;29;20032;-61
2020/12/21 11:21:10;;;;;;;3.95;1.63;;;16.80;61.00;;;;;;4936242;29;20394;-61
2020/12/21 11:23:36;;;;;;;4.32;1.23;;;16.80;60.90;;;;;;4936429;29;20023;-61
2020/12/21 11:26:01;;;;;;;3.65;1.27;;;16.70;60.90;;;;;;4936154;29;20039;-60
2020/12/21 11:28:27;;;;;;;5.18;1.17;;;16.70;61.00;;;;;;4936367;29;20031;-60
2020/12/21 11:30:52;;;;;;;4.97;1.13;;;16.70;61.00;;;;;;4936359;29;20032;-60
2020/12/21 11:33:18;;;;;;;5.28;1.42;;;16.60;61.00;;;;;;4936346;29;20022;-60
2020/12/21 11:35:44;;;;;;;3.47;1.00;;;16.60;61.00;;;;;;4934991;29;20024;-60
2020/12/21 11:38:09;;;;;;;4.68;1.30;;;16.60;60.90;;;;;;4936251;29;20047;-60
2020/12/21 11:40:35;;;;;;;3.28;1.33;;;16.60;61.00;;;;;;4936201;29;20107;-60
2020/12/21 11:43:01;;;;;;;2.40;0.73;;;16.50;61.00;;;;;;4936036;29;20036;-61
2020/12/21 11:45:26;;;;;;;4.75;1.30;;;16.50;61.00;;;;;;4935654;29;20023;-60
2020/12/21 11:47:52;;;;;;;4.63;1.25;;;16.40;61.20;;;;;;4935784;29;20232;-59
2020/12/21 11:50:17;;;;;;;7.05;1.50;;;16.40;61.50;;;;;;4936027;29;20035;-60
2020/12/21 11:52:43;;;;;;;4.60;1.00;;;16.40;62.70;;;;;;4935870;29;20058;-60
2020/12/21 11:55:09;;;;;;;5.72;0.93;;;16.40;62.70;;;;;;4935555;29;20190;-59
2020/12/21 11:57:34;;;;;;;3.83;1.33;;;16.30;64.20;;;;;;4935812;29;20035;-59
2020/12/21 12:00:00;;;;;;;2.17;1.08;;;16.30;64.40;;;;;;4918546;29;20110;-60
2020/12/21 12:02:26;;;;;;;1.05;0.93;;;16.30;65.00;;;;;;4935726;29;20229;-61
2020/12/21 12:04:51;;;;;;;3.00;1.45;;;16.30;65.10;;;;;;4937198;28;20059;-60
2020/12/21 12:07:17;;;;;;;3.83;1.20;;;16.30;65.10;;;;;;4935672;29;20028;-61
2020/12/21 12:09:43;;;;;;;3.58;1.20;;;16.30;65.20;;;;;;4935815;29;20091;-61
2020/12/21 12:12:08;;;;;;;2.08;1.02;;;16.20;65.30;;;;;;4935461;29;20501;-61
2020/12/21 12:14:35;;;;;;;2.88;0.93;;;16.20;65.40;;;;;;4935757;29;20056;-61
2020/12/21 12:17:01;;;;;;;2.53;0.90;;;16.20;65.70;;;;;;4935502;29;20126;-61
2020/12/21 12:19:27;;;;;;;1.63;0.80;;;16.10;65.80;;;;;;4935431;29;20056;-61
2020/12/21 12:21:53;;;;;;;2.75;1.00;;;16.00;65.90;;;;;;4935279;29;20028;-61
2020/12/21 12:24:19;;;;;;;1.10;0.80;;;16.00;66.10;;;;;;4935277;29;20038;-62
2020/12/21 12:26:45;;;;;;;6.63;1.10;;;16.00;66.20;;;;;;4935181;29;20028;-62
2020/12/21 12:29:11;;;;;;;1.63;0.80;;;15.90;66.40;;;;;;4935444;29;20020;-62
2020/12/21 12:31:37;;;;;;;2.22;0.90;;;15.90;66.30;;;;;;4935287;29;20092;-61
2020/12/21 12:34:02;;;;;;;2.47;1.00;;;15.90;66.40;;;;;;4935391;29;20471;-60
2020/12/21 12:36:29;;;;;;;1.63;0.60;;;15.80;66.50;;;;;;4917807;29;20066;-60
2020/12/21 12:38:55;;;;;;;2.63;0.73;;;15.80;66.40;;;;;;4935097;29;20035;-60
2020/12/21 12:41:21;;;;;;;1.80;0.82;;;15.80;66.70;;;;;;4933960;29;20474;-61
2020/12/21 12:43:47;;;;;;;2.78;0.88;;;16.60;67.20;;;;;;4935164;29;20027;-61
2020/12/21 12:46:13;;;;;;;1.45;0.88;;;15.70;66.80;;;;;;4918181;29;20020;-62
2020/12/21 12:48:38;;;;;;;1.08;0.60;;;15.80;66.60;;;;;;4939451;29;20028;-61
2020/12/21 12:51:04;;;;;;;1.63;0.88;;;15.80;66.60;;;;;;4939233;29;20016;-62